sensor_id;sensor_type;location;lat;lon;timestamp;P1;durP1;ratioP1;P2;durP2;ratioP2
479;SDS011;226;48.606;9.096;2023-10-31T00:01:04;0.60;;;0.60;;
479;SDS011;226;48.606;9.096;2023-10-31T00:03:34;0.93;;;0.93;;
479;SDS011;226;48.606;9.096;2023-10-31T00:06:03;0.80;;;0.80;;
479;SDS011;226;48.606;9.096;2023-10-31T00:08:33;1.20;;;1.10;;
479;SDS011;226;48.606;9.096;2023-10-31T00:11:02;0.93;;;0.93;;
479;SDS011;226;48.606;9.096;2023-10-31T00:13:32;1.07;;;0.70;;
479;SDS011;226;48.606;9.096;2023-10-31T00:16:01;0.70;;;0.70;;
479;SDS011;226;48.606;9.096;2023-10-31T00:18:32;1.10;;;0.87;;
479;SDS011;226;48.606;9.096;2023-10-31T00:21:01;0.77;;;0.77;;
479;SDS011;226;48.606;9.096;2023-10-31T00:23:32;0.77;;;0.77;;
479;SDS011;226;48.606;9.096;2023-10-31T00:26:01;0.97;;;0.97;;
479;SDS011;226;48.606;9.096;2023-10-31T00:28:30;0.77;;;0.77;;
479;SDS011;226;48.606;9.096;2023-10-31T00:30:59;1.00;;;1.00;;
479;SDS011;226;48.606;9.096;2023-10-31T00:33:30;1.00;;;1.00;;
479;SDS011;226;48.606;9.096;2023-10-31T00:36:01;1.10;;;1.03;;
479;SDS011;226;48.606;9.096;2023-10-31T00:38:30;0.90;;;0.90;;
479;SDS011;226;48.606;9.096;2023-10-31T00:40:59;1.00;;;1.00;;
479;SDS011;226;48.606;9.096;2023-10-31T00:43:28;1.30;;;0.93;;
479;SDS011;226;48.606;9.096;2023-10-31T00:45:57;0.70;;;0.70;;
479;SDS011;226;48.606;9.096;2023-10-31T00:48:26;1.13;;;0.90;;
479;SDS011;226;48.606;9.096;2023-10-31T00:50:55;0.90;;;0.90;;
479;SDS011;226;48.606;9.096;2023-10-31T00:53:25;0.87;;;0.87;;
479;SDS011;226;48.606;9.096;2023-10-31T00:55:54;0.90;;;0.90;;
479;SDS011;226;48.606;9.096;2023-10-31T00:58:23;0.97;;;0.80;;
479;SDS011;226;48.606;9.096;2023-10-31T01:00:52;0.70;;;0.70;;
479;SDS011;226;48.606;9.096;2023-10-31T01:03:21;0.73;;;0.73;;
479;SDS011;226;48.606;9.096;2023-10-31T01:05:50;0.87;;;0.87;;
479;SDS011;226;48.606;9.096;2023-10-31T01:08:19;0.90;;;0.90;;
479;SDS011;226;48.606;9.096;2023-10-31T01:10:50;1.30;;;1.20;;
479;SDS011;226;48.606;9.096;2023-10-31T01:13:18;0.80;;;0.80;;
479;SDS011;226;48.606;9.096;2023-10-31T01:15:46;0.73;;;0.73;;
479;SDS011;226;48.606;9.096;2023-10-31T01:18:15;1.07;;;1.07;;
479;SDS011;226;48.606;9.096;2023-10-31T01:20:44;0.80;;;0.80;;
479;SDS011;226;48.606;9.096;2023-10-31T01:23:12;1.37;;;1.17;;
479;SDS011;226;48.606;9.096;2023-10-31T01:25:41;1.00;;;1.00;;
479;SDS011;226;48.606;9.096;2023-10-31T01:28:12;2.20;;;1.23;;
479;SDS011;226;48.606;9.096;2023-10-31T01:30:41;15.03;;;1.40;;
479;SDS011;226;48.606;9.096;2023-10-31T01:33:09;6.20;;;1.20;;
479;SDS011;226;48.606;9.096;2023-10-31T01:35:38;0.90;;;0.90;;
479;SDS011;226;48.606;9.096;2023-10-31T01:38:08;2.50;;;0.80;;
479;SDS011;226;48.606;9.096;2023-10-31T01:40:37;1.07;;;1.07;;
479;SDS011;226;48.606;9.096;2023-10-31T01:43:05;2.57;;;1.07;;
479;SDS011;226;48.606;9.096;2023-10-31T01:45:35;1.33;;;1.27;;
479;SDS011;226;48.606;9.096;2023-10-31T01:48:04;3.03;;;1.03;;
479;SDS011;226;48.606;9.096;2023-10-31T01:50:33;0.97;;;0.97;;
479;SDS011;226;48.606;9.096;2023-10-31T01:53:01;2.53;;;1.20;;
479;SDS011;226;48.606;9.096;2023-10-31T01:55:30;1.10;;;1.00;;
479;SDS011;226;48.606;9.096;2023-10-31T01:57:59;2.23;;;1.00;;
479;SDS011;226;48.606;9.096;2023-10-31T02:00:27;1.40;;;1.30;;
479;SDS011;226;48.606;9.096;2023-10-31T02:02:57;1.57;;;1.07;;
479;SDS011;226;48.606;9.096;2023-10-31T02:05:27;1.37;;;0.90;;
479;SDS011;226;48.606;9.096;2023-10-31T02:07:55;2.50;;;1.37;;
479;SDS011;226;48.606;9.096;2023-10-31T02:10:23;0.80;;;0.80;;
479;SDS011;226;48.606;9.096;2023-10-31T02:12:52;1.60;;;1.07;;
479;SDS011;226;48.606;9.096;2023-10-31T02:15:20;2.00;;;1.10;;
479;SDS011;226;48.606;9.096;2023-10-31T02:17:49;2.70;;;1.13;;
479;SDS011;226;48.606;9.096;2023-10-31T02:20:19;1.00;;;1.00;;
479;SDS011;226;48.606;9.096;2023-10-31T02:22:49;0.90;;;0.90;;
479;SDS011;226;48.606;9.096;2023-10-31T02:25:18;0.70;;;0.70;;
479;SDS011;226;48.606;9.096;2023-10-31T02:27:47;1.20;;;1.10;;
479;SDS011;226;48.606;9.096;2023-10-31T02:30:16;0.97;;;0.97;;
479;SDS011;226;48.606;9.096;2023-10-31T02:32:44;3.70;;;1.40;;
479;SDS011;226;48.606;9.096;2023-10-31T02:35:16;1.90;;;1.30;;
479;SDS011;226;48.606;9.096;2023-10-31T02:37:45;3.03;;;1.50;;
479;SDS011;226;48.606;9.096;2023-10-31T02:40:15;1.03;;;0.93;;
479;SDS011;226;48.606;9.096;2023-10-31T02:42:43;1.67;;;1.10;;
479;SDS011;226;48.606;9.096;2023-10-31T02:45:12;2.50;;;1.77;;
479;SDS011;226;48.606;9.096;2023-10-31T02:47:41;1.03;;;0.93;;
479;SDS011;226;48.606;9.096;2023-10-31T02:50:09;1.17;;;1.17;;
479;SDS011;226;48.606;9.096;2023-10-31T02:52:38;0.93;;;0.90;;
479;SDS011;226;48.606;9.096;2023-10-31T02:55:07;9.00;;;1.83;;
479;SDS011;226;48.606;9.096;2023-10-31T02:57:39;1.20;;;1.20;;
479;SDS011;226;48.606;9.096;2023-10-31T03:00:08;1.20;;;1.20;;
479;SDS011;226;48.606;9.096;2023-10-31T03:02:37;1.40;;;1.30;;
479;SDS011;226;48.606;9.096;2023-10-31T03:05:05;1.70;;;1.60;;
479;SDS011;226;48.606;9.096;2023-10-31T03:07:34;1.20;;;1.10;;
479;SDS011;226;48.606;9.096;2023-10-31T03:10:02;1.00;;;1.00;;
479;SDS011;226;48.606;9.096;2023-10-31T03:12:31;1.53;;;1.43;;
479;SDS011;226;48.606;9.096;2023-10-31T03:15:00;1.30;;;1.20;;
479;SDS011;226;48.606;9.096;2023-10-31T03:17:30;1.30;;;1.20;;
479;SDS011;226;48.606;9.096;2023-10-31T03:20:00;2.93;;;1.53;;
479;SDS011;226;48.606;9.096;2023-10-31T03:22:29;1.10;;;1.10;;
479;SDS011;226;48.606;9.096;2023-10-31T03:24:57;1.10;;;1.10;;
479;SDS011;226;48.606;9.096;2023-10-31T03:27:25;1.20;;;1.20;;
479;SDS011;226;48.606;9.096;2023-10-31T03:29:53;1.53;;;1.10;;
479;SDS011;226;48.606;9.096;2023-10-31T03:32:22;1.17;;;1.07;;
479;SDS011;226;48.606;9.096;2023-10-31T03:34:51;1.80;;;1.20;;
479;SDS011;226;48.606;9.096;2023-10-31T03:37:19;0.80;;;0.80;;
479;SDS011;226;48.606;9.096;2023-10-31T03:39:47;1.00;;;1.00;;
479;SDS011;226;48.606;9.096;2023-10-31T03:42:15;1.20;;;1.10;;
479;SDS011;226;48.606;9.096;2023-10-31T03:44:43;0.93;;;0.93;;
479;SDS011;226;48.606;9.096;2023-10-31T03:47:11;1.23;;;1.10;;
479;SDS011;226;48.606;9.096;2023-10-31T03:49:41;1.47;;;1.37;;
479;SDS011;226;48.606;9.096;2023-10-31T03:52:09;1.30;;;1.30;;
479;SDS011;226;48.606;9.096;2023-10-31T03:54:37;1.00;;;1.00;;
479;SDS011;226;48.606;9.096;2023-10-31T03:57:05;1.23;;;1.23;;
479;SDS011;226;48.606;9.096;2023-10-31T03:59:34;1.10;;;1.10;;
479;SDS011;226;48.606;9.096;2023-10-31T04:02:04;0.70;;;0.70;;
479;SDS011;226;48.606;9.096;2023-10-31T04:04:32;1.03;;;1.03;;
479;SDS011;226;48.606;9.096;2023-10-31T04:07:02;1.30;;;1.20;;
479;SDS011;226;48.606;9.096;2023-10-31T04:09:30;4.00;;;1.27;;
479;SDS011;226;48.606;9.096;2023-10-31T04:11:58;2.43;;;1.07;;
479;SDS011;226;48.606;9.096;2023-10-31T04:14:27;1.10;;;1.10;;
479;SDS011;226;48.606;9.096;2023-10-31T04:16:55;0.90;;;0.90;;
479;SDS011;226;48.606;9.096;2023-10-31T04:19:23;1.20;;;1.20;;
479;SDS011;226;48.606;9.096;2023-10-31T04:21:52;1.67;;;1.00;;
479;SDS011;226;48.606;9.096;2023-10-31T04:24:22;1.53;;;1.43;;
479;SDS011;226;48.606;9.096;2023-10-31T04:26:51;1.33;;;1.23;;
479;SDS011;226;48.606;9.096;2023-10-31T04:29:19;1.13;;;1.13;;
479;SDS011;226;48.606;9.096;2023-10-31T04:31:47;1.30;;;1.30;;
479;SDS011;226;48.606;9.096;2023-10-31T04:34:15;1.43;;;1.40;;
479;SDS011;226;48.606;9.096;2023-10-31T04:36:43;0.90;;;0.90;;
479;SDS011;226;48.606;9.096;2023-10-31T04:39:11;1.03;;;1.03;;
479;SDS011;226;48.606;9.096;2023-10-31T04:41:41;1.30;;;1.30;;
479;SDS011;226;48.606;9.096;2023-10-31T04:44:09;0.97;;;0.97;;
479;SDS011;226;48.606;9.096;2023-10-31T04:46:37;0.97;;;0.97;;
479;SDS011;226;48.606;9.096;2023-10-31T04:49:05;1.20;;;1.10;;
479;SDS011;226;48.606;9.096;2023-10-31T04:51:33;1.00;;;1.00;;
479;SDS011;226;48.606;9.096;2023-10-31T04:54:03;1.40;;;1.30;;
479;SDS011;226;48.606;9.096;2023-10-31T04:56:31;1.33;;;1.30;;
479;SDS011;226;48.606;9.096;2023-10-31T04:59:01;1.10;;;1.10;;
479;SDS011;226;48.606;9.096;2023-10-31T05:01:30;9.70;;;1.23;;
479;SDS011;226;48.606;9.096;2023-10-31T05:03:58;1.07;;;1.07;;
479;SDS011;226;48.606;9.096;2023-10-31T05:06:38;1.17;;;1.17;;
479;SDS011;226;48.606;9.096;2023-10-31T05:09:06;1.50;;;1.00;;
479;SDS011;226;48.606;9.096;2023-10-31T05:11:37;1.00;;;1.00;;
479;SDS011;226;48.606;9.096;2023-10-31T05:14:08;1.33;;;1.20;;
479;SDS011;226;48.606;9.096;2023-10-31T05:16:40;1.10;;;1.10;;
479;SDS011;226;48.606;9.096;2023-10-31T05:19:09;1.23;;;1.23;;
479;SDS011;226;48.606;9.096;2023-10-31T05:21:37;0.90;;;0.90;;
479;SDS011;226;48.606;9.096;2023-10-31T05:24:06;3.30;;;1.60;;
479;SDS011;226;48.606;9.096;2023-10-31T05:26:34;1.50;;;1.40;;
479;SDS011;226;48.606;9.096;2023-10-31T05:29:03;1.73;;;1.63;;
479;SDS011;226;48.606;9.096;2023-10-31T05:31:32;1.00;;;1.00;;
479;SDS011;226;48.606;9.096;2023-10-31T05:34:01;2.50;;;1.53;;
479;SDS011;226;48.606;9.096;2023-10-31T05:36:30;1.03;;;1.03;;
479;SDS011;226;48.606;9.096;2023-10-31T05:38:58;1.10;;;1.10;;
479;SDS011;226;48.606;9.096;2023-10-31T05:41:26;1.43;;;1.33;;
479;SDS011;226;48.606;9.096;2023-10-31T05:43:54;1.63;;;1.53;;
479;SDS011;226;48.606;9.096;2023-10-31T05:46:22;1.30;;;1.30;;
479;SDS011;226;48.606;9.096;2023-10-31T05:48:52;2.90;;;2.70;;
479;SDS011;226;48.606;9.096;2023-10-31T05:51:20;2.43;;;2.03;;
479;SDS011;226;48.606;9.096;2023-10-31T05:53:48;1.10;;;1.10;;
479;SDS011;226;48.606;9.096;2023-10-31T05:56:16;1.70;;;1.60;;
479;SDS011;226;48.606;9.096;2023-10-31T05:58:44;1.30;;;1.30;;
479;SDS011;226;48.606;9.096;2023-10-31T06:01:13;1.57;;;1.57;;
479;SDS011;226;48.606;9.096;2023-10-31T06:03:41;2.83;;;1.50;;
479;SDS011;226;48.606;9.096;2023-10-31T06:06:12;1.70;;;1.60;;
479;SDS011;226;48.606;9.096;2023-10-31T06:08:40;1.03;;;1.03;;
479;SDS011;226;48.606;9.096;2023-10-31T06:11:09;1.50;;;1.50;;
479;SDS011;226;48.606;9.096;2023-10-31T06:13:39;1.10;;;1.10;;
479;SDS011;226;48.606;9.096;2023-10-31T06:16:07;1.47;;;1.37;;
479;SDS011;226;48.606;9.096;2023-10-31T06:18:37;1.60;;;1.50;;
479;SDS011;226;48.606;9.096;2023-10-31T06:21:06;1.60;;;1.50;;
479;SDS011;226;48.606;9.096;2023-10-31T06:23:37;1.73;;;1.50;;
479;SDS011;226;48.606;9.096;2023-10-31T06:26:09;1.40;;;1.40;;
479;SDS011;226;48.606;9.096;2023-10-31T06:28:38;1.10;;;1.10;;
479;SDS011;226;48.606;9.096;2023-10-31T06:31:17;1.50;;;1.50;;
479;SDS011;226;48.606;9.096;2023-10-31T06:33:46;2.30;;;2.20;;
479;SDS011;226;48.606;9.096;2023-10-31T06:36:14;2.00;;;1.73;;
479;SDS011;226;48.606;9.096;2023-10-31T06:38:43;1.83;;;1.77;;
479;SDS011;226;48.606;9.096;2023-10-31T06:41:12;2.20;;;2.00;;
479;SDS011;226;48.606;9.096;2023-10-31T06:43:40;7.30;;;2.90;;
479;SDS011;226;48.606;9.096;2023-10-31T06:46:08;2.63;;;2.43;;
479;SDS011;226;48.606;9.096;2023-10-31T06:48:36;2.37;;;2.27;;
479;SDS011;226;48.606;9.096;2023-10-31T06:51:04;5.33;;;3.27;;
479;SDS011;226;48.606;9.096;2023-10-31T06:53:32;4.93;;;4.53;;
479;SDS011;226;48.606;9.096;2023-10-31T06:56:02;3.70;;;3.40;;
479;SDS011;226;48.606;9.096;2023-10-31T06:58:30;3.17;;;2.57;;
479;SDS011;226;48.606;9.096;2023-10-31T07:00:58;1.53;;;1.43;;
479;SDS011;226;48.606;9.096;2023-10-31T07:03:27;1.87;;;1.77;;
479;SDS011;226;48.606;9.096;2023-10-31T07:05:55;6.30;;;3.00;;
479;SDS011;226;48.606;9.096;2023-10-31T07:08:24;2.20;;;1.87;;
479;SDS011;226;48.606;9.096;2023-10-31T07:10:52;3.90;;;2.87;;
479;SDS011;226;48.606;9.096;2023-10-31T07:13:21;2.83;;;2.63;;
479;SDS011;226;48.606;9.096;2023-10-31T07:15:49;1.70;;;1.60;;
479;SDS011;226;48.606;9.096;2023-10-31T07:18:17;1.33;;;1.30;;
479;SDS011;226;48.606;9.096;2023-10-31T07:20:45;1.53;;;1.43;;
479;SDS011;226;48.606;9.096;2023-10-31T07:23:14;10.00;;;1.47;;
479;SDS011;226;48.606;9.096;2023-10-31T07:25:42;2.50;;;2.30;;
479;SDS011;226;48.606;9.096;2023-10-31T07:28:11;1.10;;;1.10;;
479;SDS011;226;48.606;9.096;2023-10-31T07:30:41;1.23;;;1.10;;
479;SDS011;226;48.606;9.096;2023-10-31T07:33:09;2.97;;;1.43;;
479;SDS011;226;48.606;9.096;2023-10-31T07:35:37;3.87;;;2.80;;
479;SDS011;226;48.606;9.096;2023-10-31T07:38:05;1.60;;;1.50;;
479;SDS011;226;48.606;9.096;2023-10-31T07:40:34;1.40;;;1.40;;
479;SDS011;226;48.606;9.096;2023-10-31T07:43:02;2.13;;;1.37;;
479;SDS011;226;48.606;9.096;2023-10-31T07:45:30;1.20;;;1.10;;
479;SDS011;226;48.606;9.096;2023-10-31T07:47:59;3.40;;;1.20;;
479;SDS011;226;48.606;9.096;2023-10-31T07:50:28;1.70;;;1.30;;
479;SDS011;226;48.606;9.096;2023-10-31T07:52:56;3.30;;;1.20;;
479;SDS011;226;48.606;9.096;2023-10-31T07:55:24;1.50;;;1.50;;
479;SDS011;226;48.606;9.096;2023-10-31T07:57:52;1.50;;;1.40;;
479;SDS011;226;48.606;9.096;2023-10-31T08:00:21;1.60;;;1.50;;
479;SDS011;226;48.606;9.096;2023-10-31T08:02:49;1.80;;;1.70;;
479;SDS011;226;48.606;9.096;2023-10-31T08:05:20;1.27;;;1.23;;
479;SDS011;226;48.606;9.096;2023-10-31T08:07:49;3.47;;;2.83;;
479;SDS011;226;48.606;9.096;2023-10-31T08:10:17;1.57;;;1.47;;
479;SDS011;226;48.606;9.096;2023-10-31T08:12:45;7.70;;;1.93;;
479;SDS011;226;48.606;9.096;2023-10-31T08:15:13;1.50;;;1.50;;
479;SDS011;226;48.606;9.096;2023-10-31T08:17:43;3.63;;;1.93;;
479;SDS011;226;48.606;9.096;2023-10-31T08:20:11;2.40;;;2.13;;
479;SDS011;226;48.606;9.096;2023-10-31T08:22:42;3.10;;;2.20;;
479;SDS011;226;48.606;9.096;2023-10-31T08:25:10;1.33;;;1.10;;
479;SDS011;226;48.606;9.096;2023-10-31T08:27:39;3.30;;;1.70;;
479;SDS011;226;48.606;9.096;2023-10-31T08:30:08;6.43;;;1.23;;
479;SDS011;226;48.606;9.096;2023-10-31T08:32:37;2.50;;;1.77;;
479;SDS011;226;48.606;9.096;2023-10-31T08:35:05;2.70;;;2.50;;
479;SDS011;226;48.606;9.096;2023-10-31T08:37:37;5.03;;;1.60;;
479;SDS011;226;48.606;9.096;2023-10-31T08:40:08;1.20;;;1.20;;
479;SDS011;226;48.606;9.096;2023-10-31T08:42:36;4.30;;;1.77;;
479;SDS011;226;48.606;9.096;2023-10-31T08:45:05;1.90;;;1.57;;
479;SDS011;226;48.606;9.096;2023-10-31T08:47:34;15.70;;;2.00;;
479;SDS011;226;48.606;9.096;2023-10-31T08:50:02;1.97;;;1.87;;
479;SDS011;226;48.606;9.096;2023-10-31T08:52:31;1.37;;;1.27;;
479;SDS011;226;48.606;9.096;2023-10-31T08:55:00;2.40;;;1.40;;
479;SDS011;226;48.606;9.096;2023-10-31T08:57:30;1.30;;;1.17;;
479;SDS011;226;48.606;9.096;2023-10-31T09:00:00;1.40;;;1.30;;
479;SDS011;226;48.606;9.096;2023-10-31T09:02:29;2.63;;;1.83;;
479;SDS011;226;48.606;9.096;2023-10-31T09:04:58;3.07;;;2.00;;
479;SDS011;226;48.606;9.096;2023-10-31T09:07:26;1.80;;;1.40;;
479;SDS011;226;48.606;9.096;2023-10-31T09:09:54;2.63;;;1.67;;
479;SDS011;226;48.606;9.096;2023-10-31T09:12:22;2.80;;;1.30;;
479;SDS011;226;48.606;9.096;2023-10-31T09:14:52;1.83;;;1.63;;
479;SDS011;226;48.606;9.096;2023-10-31T09:17:20;3.50;;;1.40;;
479;SDS011;226;48.606;9.096;2023-10-31T09:19:49;3.13;;;1.27;;
479;SDS011;226;48.606;9.096;2023-10-31T09:22:17;2.77;;;1.60;;
479;SDS011;226;48.606;9.096;2023-10-31T09:24:45;6.57;;;1.30;;
479;SDS011;226;48.606;9.096;2023-10-31T09:27:14;2.20;;;1.17;;
479;SDS011;226;48.606;9.096;2023-10-31T09:29:42;12.30;;;2.40;;
479;SDS011;226;48.606;9.096;2023-10-31T09:32:13;2.10;;;1.60;;
479;SDS011;226;48.606;9.096;2023-10-31T09:34:42;4.30;;;1.57;;
479;SDS011;226;48.606;9.096;2023-10-31T09:37:11;1.63;;;1.23;;
479;SDS011;226;48.606;9.096;2023-10-31T09:39:39;1.93;;;1.60;;
479;SDS011;226;48.606;9.096;2023-10-31T09:42:07;2.80;;;1.50;;
479;SDS011;226;48.606;9.096;2023-10-31T09:44:36;3.40;;;1.83;;
479;SDS011;226;48.606;9.096;2023-10-31T09:47:04;5.07;;;2.57;;
479;SDS011;226;48.606;9.096;2023-10-31T09:49:35;5.47;;;1.80;;
479;SDS011;226;48.606;9.096;2023-10-31T09:52:04;1.80;;;1.40;;
479;SDS011;226;48.606;9.096;2023-10-31T09:54:33;1.80;;;1.50;;
479;SDS011;226;48.606;9.096;2023-10-31T09:57:02;6.40;;;2.00;;
479;SDS011;226;48.606;9.096;2023-10-31T09:59:32;2.90;;;2.00;;
479;SDS011;226;48.606;9.096;2023-10-31T10:02:02;1.60;;;1.50;;
479;SDS011;226;48.606;9.096;2023-10-31T10:04:31;2.60;;;1.43;;
479;SDS011;226;48.606;9.096;2023-10-31T10:07:02;6.10;;;1.80;;
479;SDS011;226;48.606;9.096;2023-10-31T10:09:31;8.40;;;1.50;;
479;SDS011;226;48.606;9.096;2023-10-31T10:12:00;1.47;;;1.30;;
479;SDS011;226;48.606;9.096;2023-10-31T10:14:29;2.20;;;1.67;;
479;SDS011;226;48.606;9.096;2023-10-31T10:17:00;7.13;;;2.10;;
479;SDS011;226;48.606;9.096;2023-10-31T10:19:29;5.63;;;2.10;;
479;SDS011;226;48.606;9.096;2023-10-31T10:21:58;9.03;;;2.13;;
479;SDS011;226;48.606;9.096;2023-10-31T10:24:29;5.40;;;1.73;;
479;SDS011;226;48.606;9.096;2023-10-31T10:26:58;2.17;;;1.60;;
479;SDS011;226;48.606;9.096;2023-10-31T10:29:28;1.90;;;1.80;;
479;SDS011;226;48.606;9.096;2023-10-31T10:31:57;2.07;;;1.77;;
479;SDS011;226;48.606;9.096;2023-10-31T10:34:26;2.30;;;1.67;;
479;SDS011;226;48.606;9.096;2023-10-31T10:36:56;1.20;;;1.10;;
479;SDS011;226;48.606;9.096;2023-10-31T10:39:26;2.30;;;1.20;;
479;SDS011;226;48.606;9.096;2023-10-31T10:41:59;5.23;;;1.60;;
479;SDS011;226;48.606;9.096;2023-10-31T10:44:31;5.10;;;2.40;;
479;SDS011;226;48.606;9.096;2023-10-31T10:47:01;4.00;;;2.07;;
479;SDS011;226;48.606;9.096;2023-10-31T10:49:32;2.90;;;1.87;;
479;SDS011;226;48.606;9.096;2023-10-31T10:52:10;3.33;;;2.47;;
479;SDS011;226;48.606;9.096;2023-10-31T10:54:44;6.43;;;1.50;;
479;SDS011;226;48.606;9.096;2023-10-31T10:57:17;1.30;;;1.20;;
479;SDS011;226;48.606;9.096;2023-10-31T10:59:50;6.70;;;1.70;;
479;SDS011;226;48.606;9.096;2023-10-31T11:02:20;1.23;;;1.13;;
479;SDS011;226;48.606;9.096;2023-10-31T11:04:51;5.57;;;1.30;;
479;SDS011;226;48.606;9.096;2023-10-31T11:07:21;5.50;;;1.70;;
479;SDS011;226;48.606;9.096;2023-10-31T11:09:51;1.97;;;1.10;;
479;SDS011;226;48.606;9.096;2023-10-31T11:12:22;1.83;;;1.20;;
479;SDS011;226;48.606;9.096;2023-10-31T11:14:52;4.30;;;1.80;;
479;SDS011;226;48.606;9.096;2023-10-31T11:17:23;3.30;;;1.63;;
479;SDS011;226;48.606;9.096;2023-10-31T11:19:54;2.20;;;1.50;;
479;SDS011;226;48.606;9.096;2023-10-31T11:22:23;1.63;;;1.40;;
479;SDS011;226;48.606;9.096;2023-10-31T11:24:53;6.00;;;1.80;;
479;SDS011;226;48.606;9.096;2023-10-31T11:27:23;1.30;;;1.20;;
479;SDS011;226;48.606;9.096;2023-10-31T11:29:54;1.63;;;0.80;;
479;SDS011;226;48.606;9.096;2023-10-31T11:32:24;1.23;;;1.13;;
479;SDS011;226;48.606;9.096;2023-10-31T11:34:56;2.93;;;1.10;;
479;SDS011;226;48.606;9.096;2023-10-31T11:37:26;2.47;;;1.00;;
479;SDS011;226;48.606;9.096;2023-10-31T11:40:15;1.10;;;1.10;;
479;SDS011;226;48.606;9.096;2023-10-31T11:42:48;1.03;;;1.03;;
479;SDS011;226;48.606;9.096;2023-10-31T11:45:27;2.83;;;1.07;;
479;SDS011;226;48.606;9.096;2023-10-31T11:47:56;4.93;;;1.50;;
479;SDS011;226;48.606;9.096;2023-10-31T11:50:26;1.50;;;0.93;;
479;SDS011;226;48.606;9.096;2023-10-31T11:53:05;1.00;;;1.00;;
479;SDS011;226;48.606;9.096;2023-10-31T11:55:39;1.47;;;0.83;;
479;SDS011;226;48.606;9.096;2023-10-31T11:58:13;1.90;;;1.17;;
479;SDS011;226;48.606;9.096;2023-10-31T12:00:43;0.70;;;0.70;;
479;SDS011;226;48.606;9.096;2023-10-31T12:03:12;0.93;;;0.90;;
479;SDS011;226;48.606;9.096;2023-10-31T12:05:50;1.37;;;1.17;;
479;SDS011;226;48.606;9.096;2023-10-31T12:08:27;2.83;;;1.00;;
479;SDS011;226;48.606;9.096;2023-10-31T12:11:04;1.17;;;1.07;;
479;SDS011;226;48.606;9.096;2023-10-31T12:13:35;1.70;;;1.60;;
479;SDS011;226;48.606;9.096;2023-10-31T12:16:05;0.93;;;0.93;;
479;SDS011;226;48.606;9.096;2023-10-31T12:18:36;0.77;;;0.77;;
479;SDS011;226;48.606;9.096;2023-10-31T12:21:06;5.23;;;1.17;;
479;SDS011;226;48.606;9.096;2023-10-31T12:23:37;1.00;;;0.90;;
479;SDS011;226;48.606;9.096;2023-10-31T12:26:06;1.37;;;0.70;;
479;SDS011;226;48.606;9.096;2023-10-31T12:28:38;0.93;;;0.90;;
479;SDS011;226;48.606;9.096;2023-10-31T12:31:07;4.13;;;0.83;;
479;SDS011;226;48.606;9.096;2023-10-31T12:33:36;1.03;;;1.03;;
479;SDS011;226;48.606;9.096;2023-10-31T12:36:06;0.93;;;0.93;;
479;SDS011;226;48.606;9.096;2023-10-31T12:38:36;2.13;;;0.90;;
479;SDS011;226;48.606;9.096;2023-10-31T12:41:05;2.30;;;1.33;;
479;SDS011;226;48.606;9.096;2023-10-31T12:43:35;0.63;;;0.63;;
479;SDS011;226;48.606;9.096;2023-10-31T12:48:50;4.53;;;0.90;;
479;SDS011;226;48.606;9.096;2023-10-31T12:51:20;1.80;;;0.93;;
479;SDS011;226;48.606;9.096;2023-10-31T12:53:49;2.03;;;1.13;;
479;SDS011;226;48.606;9.096;2023-10-31T12:56:34;3.70;;;1.10;;
479;SDS011;226;48.606;9.096;2023-10-31T12:59:05;7.63;;;1.30;;
479;SDS011;226;48.606;9.096;2023-10-31T13:01:35;1.93;;;1.80;;
479;SDS011;226;48.606;9.096;2023-10-31T13:04:06;1.47;;;1.00;;
479;SDS011;226;48.606;9.096;2023-10-31T13:06:36;3.90;;;1.23;;
479;SDS011;226;48.606;9.096;2023-10-31T13:09:05;0.90;;;0.80;;
479;SDS011;226;48.606;9.096;2023-10-31T13:11:39;4.30;;;1.30;;
479;SDS011;226;48.606;9.096;2023-10-31T13:14:11;0.80;;;0.80;;
479;SDS011;226;48.606;9.096;2023-10-31T13:16:42;0.60;;;0.60;;
479;SDS011;226;48.606;9.096;2023-10-31T13:19:15;3.60;;;1.33;;
479;SDS011;226;48.606;9.096;2023-10-31T13:21:48;0.83;;;0.80;;
479;SDS011;226;48.606;9.096;2023-10-31T13:24:19;1.00;;;0.90;;
479;SDS011;226;48.606;9.096;2023-10-31T13:26:50;0.90;;;0.90;;
479;SDS011;226;48.606;9.096;2023-10-31T13:29:23;1.50;;;1.07;;
479;SDS011;226;48.606;9.096;2023-10-31T13:31:54;1.07;;;1.07;;
479;SDS011;226;48.606;9.096;2023-10-31T13:34:27;1.80;;;0.90;;
479;SDS011;226;48.606;9.096;2023-10-31T13:36:59;0.90;;;0.90;;
479;SDS011;226;48.606;9.096;2023-10-31T13:39:31;1.73;;;1.00;;
479;SDS011;226;48.606;9.096;2023-10-31T13:42:03;0.93;;;0.93;;
479;SDS011;226;48.606;9.096;2023-10-31T13:44:36;0.77;;;0.77;;
479;SDS011;226;48.606;9.096;2023-10-31T13:47:08;1.90;;;0.93;;
479;SDS011;226;48.606;9.096;2023-10-31T13:49:40;0.70;;;0.70;;
479;SDS011;226;48.606;9.096;2023-10-31T13:52:12;1.13;;;1.03;;
479;SDS011;226;48.606;9.096;2023-10-31T13:54:44;0.70;;;0.70;;
479;SDS011;226;48.606;9.096;2023-10-31T13:57:13;4.67;;;2.10;;
479;SDS011;226;48.606;9.096;2023-10-31T13:59:43;0.90;;;0.90;;
479;SDS011;226;48.606;9.096;2023-10-31T14:02:12;1.30;;;0.73;;
479;SDS011;226;48.606;9.096;2023-10-31T14:04:43;1.23;;;0.90;;
479;SDS011;226;48.606;9.096;2023-10-31T14:07:13;1.77;;;0.97;;
479;SDS011;226;48.606;9.096;2023-10-31T14:09:45;2.00;;;0.83;;
479;SDS011;226;48.606;9.096;2023-10-31T14:12:15;1.03;;;1.03;;
479;SDS011;226;48.606;9.096;2023-10-31T14:14:45;1.53;;;1.43;;
479;SDS011;226;48.606;9.096;2023-10-31T14:17:16;2.03;;;1.30;;
479;SDS011;226;48.606;9.096;2023-10-31T14:19:50;1.37;;;1.27;;
479;SDS011;226;48.606;9.096;2023-10-31T14:22:20;1.00;;;1.00;;
479;SDS011;226;48.606;9.096;2023-10-31T14:24:50;2.93;;;2.33;;
479;SDS011;226;48.606;9.096;2023-10-31T14:27:19;7.00;;;2.30;;
479;SDS011;226;48.606;9.096;2023-10-31T14:29:49;1.93;;;1.30;;
479;SDS011;226;48.606;9.096;2023-10-31T14:32:19;2.30;;;1.50;;
479;SDS011;226;48.606;9.096;2023-10-31T14:34:51;3.43;;;1.30;;
479;SDS011;226;48.606;9.096;2023-10-31T14:37:20;1.33;;;1.10;;
479;SDS011;226;48.606;9.096;2023-10-31T14:39:50;1.90;;;1.80;;
479;SDS011;226;48.606;9.096;2023-10-31T14:42:20;1.60;;;1.50;;
479;SDS011;226;48.606;9.096;2023-10-31T14:44:50;1.70;;;1.60;;
479;SDS011;226;48.606;9.096;2023-10-31T14:47:22;3.07;;;1.50;;
479;SDS011;226;48.606;9.096;2023-10-31T14:49:53;1.30;;;1.30;;
479;SDS011;226;48.606;9.096;2023-10-31T14:52:25;3.30;;;1.10;;
479;SDS011;226;48.606;9.096;2023-10-31T14:54:54;1.93;;;1.83;;
479;SDS011;226;48.606;9.096;2023-10-31T14:57:25;1.37;;;1.27;;
479;SDS011;226;48.606;9.096;2023-10-31T14:59:57;1.13;;;1.13;;
479;SDS011;226;48.606;9.096;2023-10-31T15:02:28;2.40;;;1.13;;
479;SDS011;226;48.606;9.096;2023-10-31T15:04:59;1.97;;;1.10;;
479;SDS011;226;48.606;9.096;2023-10-31T15:07:30;1.30;;;1.20;;
479;SDS011;226;48.606;9.096;2023-10-31T15:09:59;1.57;;;1.10;;
479;SDS011;226;48.606;9.096;2023-10-31T15:12:29;2.17;;;0.80;;
479;SDS011;226;48.606;9.096;2023-10-31T15:14:59;7.43;;;1.17;;
479;SDS011;226;48.606;9.096;2023-10-31T15:17:28;1.93;;;1.50;;
479;SDS011;226;48.606;9.096;2023-10-31T15:19:59;1.17;;;1.10;;
479;SDS011;226;48.606;9.096;2023-10-31T15:22:30;1.70;;;1.60;;
479;SDS011;226;48.606;9.096;2023-10-31T15:24:59;1.73;;;1.30;;
479;SDS011;226;48.606;9.096;2023-10-31T15:27:29;1.70;;;1.60;;
479;SDS011;226;48.606;9.096;2023-10-31T15:29:58;1.73;;;1.53;;
479;SDS011;226;48.606;9.096;2023-10-31T15:32:28;1.30;;;1.30;;
479;SDS011;226;48.606;9.096;2023-10-31T15:34:57;1.50;;;1.40;;
479;SDS011;226;48.606;9.096;2023-10-31T15:37:29;1.90;;;1.27;;
479;SDS011;226;48.606;9.096;2023-10-31T15:39:58;1.90;;;1.33;;
479;SDS011;226;48.606;9.096;2023-10-31T15:42:28;1.50;;;1.33;;
479;SDS011;226;48.606;9.096;2023-10-31T15:44:58;1.67;;;1.23;;
479;SDS011;226;48.606;9.096;2023-10-31T15:47:29;1.00;;;1.00;;
479;SDS011;226;48.606;9.096;2023-10-31T15:49:59;2.40;;;1.60;;
479;SDS011;226;48.606;9.096;2023-10-31T15:52:30;2.00;;;1.80;;
479;SDS011;226;48.606;9.096;2023-10-31T15:54:59;3.73;;;1.83;;
479;SDS011;226;48.606;9.096;2023-10-31T15:57:29;3.57;;;1.70;;
479;SDS011;226;48.606;9.096;2023-10-31T15:59:58;1.10;;;1.10;;
479;SDS011;226;48.606;9.096;2023-10-31T16:02:30;2.10;;;1.13;;